MTN8211 TJSJ-TUPJ
Flight info
| Callsign | MTN8211 |
|---|---|
| Flight time | 0h 31m |
| Altitude | 11000 |
| Route | SJU RTE2 MALIE DCT JANER |
| Aircraft | C408/M-SDFGRY/S |
Departure
| Time | 2026-05-06 21:51 |
|---|---|
| Airport | Luis Munoz Marin International Airport (TJSJ) |
Arrival
| Time | 2026-05-06 22:22 |
|---|---|
| Airport | Terrance B. Lettsome International Airport (TUPJ) |
| Time | Latitude | Longitude | Altitude | Speed | Heading |
|---|---|---|---|---|---|
| 2026-05-06 21:33 | 18.43721 | -65.99435 | 15 ft | 0 kts | 90° |
| 2026-05-06 21:44 | 18.43716 | -65.99427 | 15 ft | 3 kts | 153° |
| 2026-05-06 21:44 | 18.43710 | -65.99426 | 15 ft | 0 kts | 179° |
| 2026-05-06 21:45 | 18.43697 | -65.99428 | 15 ft | 5 kts | 197° |
| 2026-05-06 21:45 | 18.43649 | -65.99468 | 15 ft | 12 kts | 223° |
| 2026-05-06 21:46 | 18.43565 | -65.99529 | 15 ft | 16 kts | 205° |
| 2026-05-06 21:46 | 18.43492 | -65.99552 | 16 ft | 15 kts | 201° |
| 2026-05-06 21:46 | 18.43459 | -65.99631 | 16 ft | 16 kts | 278° |
| 2026-05-06 21:46 | 18.43462 | -65.99773 | 15 ft | 22 kts | 270° |
| 2026-05-06 21:47 | 18.43463 | -65.99951 | 16 ft | 26 kts | 270° |
| 2026-05-06 21:47 | 18.43463 | -66.00155 | 15 ft | 30 kts | 270° |
| 2026-05-06 21:47 | 18.43472 | -66.00363 | 15 ft | 29 kts | 270° |
| 2026-05-06 21:47 | 18.43475 | -66.00571 | 15 ft | 27 kts | 269° |
| 2026-05-06 21:48 | 18.43474 | -66.00744 | 14 ft | 23 kts | 268° |
| 2026-05-06 21:48 | 18.43466 | -66.00913 | 15 ft | 25 kts | 270° |
| 2026-05-06 21:48 | 18.43466 | -66.01109 | 15 ft | 27 kts | 271° |
| 2026-05-06 21:48 | 18.43468 | -66.01234 | 15 ft | 8 kts | 268° |
| 2026-05-06 21:49 | 18.43458 | -66.01265 | 15 ft | 0 kts | 233° |
| 2026-05-06 21:49 | 18.43456 | -66.01267 | 15 ft | 2 kts | 227° |
| 2026-05-06 21:49 | 18.43411 | -66.01274 | 15 ft | 10 kts | 180° |
| 2026-05-06 21:50 | 18.43357 | -66.01241 | 15 ft | 11 kts | 99° |
| 2026-05-06 21:50 | 18.43354 | -66.01011 | 15 ft | 68 kts | 91° |
| 2026-05-06 21:50 | 18.43344 | -66.00292 | 15 ft | 122 kts | 94° |
| 2026-05-06 21:50 | 18.43388 | -65.99318 | 187 ft | 138 kts | 91° |
| 2026-05-06 21:51 | 18.43506 | -65.98389 | 743 ft | 123 kts | 71° |
| 2026-05-06 21:51 | 18.43947 | -65.97578 | 986 ft | 129 kts | 78° |
| 2026-05-06 21:51 | 18.44116 | -65.96662 | 1332 ft | 132 kts | 80° |
| 2026-05-06 21:51 | 18.44327 | -65.95672 | 1635 ft | 139 kts | 81° |
| 2026-05-06 21:52 | 18.44531 | -65.94654 | 1928 ft | 144 kts | 84° |
| 2026-05-06 21:52 | 18.44603 | -65.93590 | 2244 ft | 148 kts | 91° |
| 2026-05-06 21:52 | 18.44689 | -65.92510 | 2558 ft | 151 kts | 89° |
| 2026-05-06 21:52 | 18.44785 | -65.91408 | 2884 ft | 152 kts | 89° |
| 2026-05-06 21:53 | 18.44890 | -65.90299 | 3238 ft | 152 kts | 88° |
| 2026-05-06 21:53 | 18.44997 | -65.89186 | 3599 ft | 153 kts | 89° |
| 2026-05-06 21:53 | 18.45104 | -65.88076 | 3949 ft | 151 kts | 88° |
| 2026-05-06 21:53 | 18.45209 | -65.86970 | 4311 ft | 152 kts | 87° |
| 2026-05-06 21:54 | 18.45316 | -65.85864 | 4667 ft | 153 kts | 88° |
| 2026-05-06 21:54 | 18.45422 | -65.84747 | 5017 ft | 153 kts | 88° |
| 2026-05-06 21:54 | 18.45529 | -65.83632 | 5363 ft | 153 kts | 87° |
| 2026-05-06 21:54 | 18.45637 | -65.82519 | 5718 ft | 152 kts | 86° |
| 2026-05-06 21:55 | 18.45741 | -65.81414 | 6075 ft | 152 kts | 86° |
| 2026-05-06 21:55 | 18.45847 | -65.80311 | 6440 ft | 151 kts | 86° |
| 2026-05-06 21:55 | 18.45927 | -65.79208 | 6778 ft | 151 kts | 90° |
| 2026-05-06 21:55 | 18.45999 | -65.78104 | 7121 ft | 151 kts | 86° |
| 2026-05-06 21:56 | 18.46079 | -65.77003 | 7471 ft | 151 kts | 87° |
| 2026-05-06 21:56 | 18.46153 | -65.75900 | 7819 ft | 151 kts | 87° |
| 2026-05-06 21:56 | 18.46226 | -65.74797 | 8169 ft | 151 kts | 87° |
| 2026-05-06 21:56 | 18.46298 | -65.73693 | 8533 ft | 151 kts | 86° |
| 2026-05-06 21:57 | 18.46370 | -65.72591 | 8894 ft | 151 kts | 86° |
| 2026-05-06 21:57 | 18.46443 | -65.71488 | 9260 ft | 151 kts | 86° |
| 2026-05-06 21:57 | 18.46407 | -65.70392 | 9622 ft | 151 kts | 102° |
| 2026-05-06 21:57 | 18.46187 | -65.69284 | 9796 ft | 165 kts | 100° |
| 2026-05-06 21:58 | 18.45948 | -65.68001 | 9626 ft | 189 kts | 101° |
| 2026-05-06 21:58 | 18.45694 | -65.66587 | 9357 ft | 201 kts | 100° |
| 2026-05-06 21:58 | 18.45438 | -65.65124 | 9078 ft | 205 kts | 101° |
| 2026-05-06 21:58 | 18.45179 | -65.63662 | 9007 ft | 199 kts | 101° |
| 2026-05-06 21:59 | 18.44925 | -65.62232 | 8995 ft | 199 kts | 101° |
| 2026-05-06 21:59 | 18.44669 | -65.60794 | 8983 ft | 200 kts | 101° |
| 2026-05-06 21:59 | 18.44411 | -65.59352 | 8991 ft | 200 kts | 101° |
| 2026-05-06 21:59 | 18.44153 | -65.57909 | 8988 ft | 201 kts | 101° |
| 2026-05-06 22:00 | 18.43897 | -65.56464 | 8986 ft | 201 kts | 101° |
| 2026-05-06 22:00 | 18.43639 | -65.55019 | 8983 ft | 201 kts | 101° |
| 2026-05-06 22:00 | 18.43381 | -65.53574 | 8986 ft | 201 kts | 101° |
| 2026-05-06 22:00 | 18.43123 | -65.52128 | 8981 ft | 201 kts | 101° |
| 2026-05-06 22:01 | 18.42865 | -65.50683 | 8983 ft | 201 kts | 101° |
| 2026-05-06 22:01 | 18.42607 | -65.49239 | 8982 ft | 201 kts | 101° |
| 2026-05-06 22:01 | 18.42349 | -65.47795 | 8984 ft | 201 kts | 101° |
| 2026-05-06 22:01 | 18.42091 | -65.46350 | 8991 ft | 201 kts | 101° |
| 2026-05-06 22:02 | 18.41833 | -65.44906 | 8992 ft | 201 kts | 101° |
| 2026-05-06 22:02 | 18.41574 | -65.43462 | 8991 ft | 201 kts | 101° |
| 2026-05-06 22:02 | 18.41316 | -65.42020 | 8992 ft | 200 kts | 101° |
| 2026-05-06 22:02 | 18.41061 | -65.40597 | 8989 ft | 200 kts | 101° |
| 2026-05-06 22:03 | 18.40803 | -65.39157 | 8988 ft | 200 kts | 101° |
| 2026-05-06 22:03 | 18.40544 | -65.37715 | 8990 ft | 200 kts | 101° |
| 2026-05-06 22:03 | 18.40286 | -65.36274 | 8988 ft | 200 kts | 101° |
| 2026-05-06 22:03 | 18.40028 | -65.34834 | 8990 ft | 200 kts | 101° |
| 2026-05-06 22:04 | 18.39769 | -65.33393 | 8988 ft | 200 kts | 101° |
| 2026-05-06 22:04 | 18.39511 | -65.31956 | 8993 ft | 200 kts | 101° |
| 2026-05-06 22:04 | 18.39252 | -65.30517 | 8993 ft | 200 kts | 101° |
| 2026-05-06 22:04 | 18.38994 | -65.29079 | 8996 ft | 200 kts | 101° |
| 2026-05-06 22:05 | 18.38736 | -65.27641 | 8998 ft | 200 kts | 101° |
| 2026-05-06 22:05 | 18.38476 | -65.26202 | 8996 ft | 200 kts | 101° |
| 2026-05-06 22:05 | 18.38218 | -65.24766 | 8998 ft | 200 kts | 101° |
| 2026-05-06 22:05 | 18.37959 | -65.23328 | 9000 ft | 200 kts | 101° |
| 2026-05-06 22:06 | 18.37700 | -65.21891 | 8998 ft | 200 kts | 101° |
| 2026-05-06 22:06 | 18.37441 | -65.20455 | 8997 ft | 200 kts | 101° |
| 2026-05-06 22:06 | 18.37183 | -65.19020 | 8999 ft | 200 kts | 101° |
| 2026-05-06 22:06 | 18.36923 | -65.17582 | 9000 ft | 200 kts | 101° |
| 2026-05-06 22:07 | 18.36664 | -65.16148 | 9002 ft | 200 kts | 101° |
| 2026-05-06 22:07 | 18.36405 | -65.14712 | 8999 ft | 200 kts | 101° |
| 2026-05-06 22:07 | 18.36146 | -65.13278 | 9001 ft | 200 kts | 101° |
| 2026-05-06 22:07 | 18.35887 | -65.11843 | 8999 ft | 200 kts | 101° |
| 2026-05-06 22:08 | 18.35628 | -65.10409 | 9003 ft | 199 kts | 101° |
| 2026-05-06 22:08 | 18.35368 | -65.08976 | 9004 ft | 199 kts | 101° |
| 2026-05-06 22:08 | 18.35109 | -65.07543 | 9002 ft | 199 kts | 101° |
| 2026-05-06 22:08 | 18.34849 | -65.06108 | 8948 ft | 201 kts | 101° |
| 2026-05-06 22:09 | 18.34583 | -65.04646 | 8724 ft | 205 kts | 101° |
| 2026-05-06 22:09 | 18.34318 | -65.03184 | 8457 ft | 201 kts | 101° |
| 2026-05-06 22:09 | 18.34060 | -65.01754 | 8190 ft | 197 kts | 101° |
| 2026-05-06 22:09 | 18.33807 | -65.00353 | 7930 ft | 193 kts | 101° |
| 2026-05-06 22:10 | 18.33557 | -64.98975 | 7677 ft | 190 kts | 102° |
| 2026-05-06 22:10 | 18.33309 | -64.97611 | 7424 ft | 189 kts | 102° |
| 2026-05-06 22:10 | 18.33063 | -64.96260 | 7174 ft | 188 kts | 102° |
| 2026-05-06 22:10 | 18.32818 | -64.94905 | 6925 ft | 189 kts | 102° |
| 2026-05-06 22:11 | 18.32570 | -64.93547 | 6682 ft | 189 kts | 102° |
| 2026-05-06 22:11 | 18.32322 | -64.92183 | 6421 ft | 190 kts | 102° |
| 2026-05-06 22:11 | 18.32078 | -64.90840 | 6173 ft | 189 kts | 102° |
| 2026-05-06 22:11 | 18.31830 | -64.89483 | 5922 ft | 188 kts | 102° |
| 2026-05-06 22:12 | 18.31582 | -64.88119 | 5672 ft | 187 kts | 102° |
| 2026-05-06 22:12 | 18.31343 | -64.86799 | 5424 ft | 185 kts | 102° |
| 2026-05-06 22:12 | 18.31098 | -64.85461 | 5178 ft | 183 kts | 102° |
| 2026-05-06 22:12 | 18.30860 | -64.84152 | 4932 ft | 182 kts | 102° |
| 2026-05-06 22:13 | 18.30624 | -64.82855 | 4689 ft | 180 kts | 102° |
| 2026-05-06 22:13 | 18.30389 | -64.81570 | 4452 ft | 178 kts | 102° |
| 2026-05-06 22:13 | 18.30159 | -64.80309 | 4218 ft | 177 kts | 103° |
| 2026-05-06 22:13 | 18.29927 | -64.79039 | 3984 ft | 176 kts | 102° |
| 2026-05-06 22:14 | 18.29696 | -64.77771 | 3752 ft | 177 kts | 102° |
| 2026-05-06 22:14 | 18.29458 | -64.76474 | 3515 ft | 179 kts | 102° |
| 2026-05-06 22:14 | 18.29229 | -64.75220 | 3277 ft | 174 kts | 102° |
| 2026-05-06 22:14 | 18.29001 | -64.73989 | 3052 ft | 169 kts | 103° |
| 2026-05-06 22:15 | 18.28552 | -64.72892 | 2989 ft | 159 kts | 121° |
| 2026-05-06 22:15 | 18.28025 | -64.71888 | 2988 ft | 155 kts | 118° |
| 2026-05-06 22:15 | 18.27499 | -64.70892 | 2923 ft | 156 kts | 119° |
| 2026-05-06 22:15 | 18.26969 | -64.69888 | 2837 ft | 158 kts | 119° |
| 2026-05-06 22:16 | 18.26434 | -64.68877 | 2741 ft | 159 kts | 119° |
| 2026-05-06 22:16 | 18.25973 | -64.67818 | 2635 ft | 161 kts | 103° |
| 2026-05-06 22:16 | 18.25941 | -64.66633 | 2531 ft | 164 kts | 83° |
| 2026-05-06 22:16 | 18.26343 | -64.65524 | 2515 ft | 163 kts | 60° |
| 2026-05-06 22:17 | 18.27117 | -64.64663 | 2506 ft | 163 kts | 38° |
| 2026-05-06 22:17 | 18.28118 | -64.64073 | 2503 ft | 168 kts | 33° |
| 2026-05-06 22:17 | 18.29083 | -64.63506 | 2508 ft | 171 kts | 32° |
| 2026-05-06 22:17 | 18.30131 | -64.62899 | 2516 ft | 173 kts | 32° |
| 2026-05-06 22:18 | 18.31186 | -64.62288 | 2523 ft | 172 kts | 32° |
| 2026-05-06 22:18 | 18.32238 | -64.61678 | 2508 ft | 173 kts | 32° |
| 2026-05-06 22:18 | 18.33293 | -64.61068 | 2510 ft | 173 kts | 32° |
| 2026-05-06 22:18 | 18.34344 | -64.60458 | 2511 ft | 173 kts | 32° |
| 2026-05-06 22:19 | 18.35406 | -64.59839 | 2302 ft | 174 kts | 32° |
| 2026-05-06 22:19 | 18.36464 | -64.59226 | 2087 ft | 172 kts | 31° |
| 2026-05-06 22:19 | 18.37497 | -64.58629 | 1862 ft | 167 kts | 32° |
| 2026-05-06 22:19 | 18.38481 | -64.58058 | 1799 ft | 152 kts | 31° |
| 2026-05-06 22:20 | 18.39394 | -64.57528 | 1553 ft | 148 kts | 32° |
| 2026-05-06 22:20 | 18.40276 | -64.57017 | 1309 ft | 139 kts | 33° |
| 2026-05-06 22:20 | 18.41035 | -64.56578 | 1156 ft | 116 kts | 33° |
| 2026-05-06 22:20 | 18.41728 | -64.56187 | 923 ft | 114 kts | 31° |
| 2026-05-06 22:21 | 18.42479 | -64.55941 | 633 ft | 113 kts | 19° |
| 2026-05-06 22:21 | 18.43216 | -64.55730 | 404 ft | 106 kts | 25° |
| 2026-05-06 22:21 | 18.43857 | -64.55392 | 204 ft | 98 kts | 45° |
| 2026-05-06 22:21 | 18.44207 | -64.54790 | 62 ft | 98 kts | 60° |
| 2026-05-06 22:22 | 18.44543 | -64.54185 | 14 ft | 87 kts | 65° |
| 2026-05-06 22:22 | 18.44732 | -64.53826 | 11 ft | 46 kts | 60° |
| 2026-05-06 22:22 | 18.44817 | -64.53671 | 14 ft | 14 kts | 63° |
| 2026-05-06 22:22 | 18.44849 | -64.53605 | 14 ft | 0 kts | 68° |
| 2026-05-06 22:23 | 18.44847 | -64.53558 | 13 ft | 7 kts | 149° |
| 2026-05-06 22:23 | 18.44787 | -64.53561 | 13 ft | 13 kts | 207° |
| 2026-05-06 22:23 | 18.44736 | -64.53633 | 13 ft | 17 kts | 242° |
| 2026-05-06 22:24 | 18.44689 | -64.53724 | 12 ft | 14 kts | 242° |
| 2026-05-06 22:24 | 18.44654 | -64.53769 | 12 ft | 8 kts | 198° |
| 2026-05-06 22:24 | 18.44610 | -64.53810 | 13 ft | 12 kts | 254° |
| 2026-05-06 22:24 | 18.44577 | -64.53886 | 15 ft | 12 kts | 236° |
| 2026-05-06 22:25 | 18.44526 | -64.53916 | 17 ft | 3 kts | 162° |
| 2026-05-06 22:25 | 18.44521 | -64.53872 | 17 ft | 8 kts | 63° |
| 2026-05-06 22:25 | 18.44531 | -64.53853 | 18 ft | 0 kts | 60° |